sensor_id;sensor_type;location;lat;lon;timestamp;P1;durP1;ratioP1;P2;durP2;ratioP2
51927;SDS011;37953;52.806;18.270;2023-12-22T00:00:39;16.88;;;3.03;;
51927;SDS011;37953;52.806;18.270;2023-12-22T00:03:25;24.95;;;3.13;;
51927;SDS011;37953;52.806;18.270;2023-12-22T00:05:51;25.45;;;3.33;;
51927;SDS011;37953;52.806;18.270;2023-12-22T00:08:17;22.17;;;2.92;;
51927;SDS011;37953;52.806;18.270;2023-12-22T00:10:43;18.92;;;2.83;;
51927;SDS011;37953;52.806;18.270;2023-12-22T00:13:09;22.25;;;3.22;;
51927;SDS011;37953;52.806;18.270;2023-12-22T00:15:35;18.30;;;3.20;;
51927;SDS011;37953;52.806;18.270;2023-12-22T00:18:01;22.70;;;3.38;;
51927;SDS011;37953;52.806;18.270;2023-12-22T00:20:27;17.05;;;2.58;;
51927;SDS011;37953;52.806;18.270;2023-12-22T00:22:53;19.88;;;3.35;;
51927;SDS011;37953;52.806;18.270;2023-12-22T00:25:19;22.92;;;4.00;;
51927;SDS011;37953;52.806;18.270;2023-12-22T00:27:44;19.27;;;3.38;;
51927;SDS011;37953;52.806;18.270;2023-12-22T00:30:11;23.50;;;3.25;;
51927;SDS011;37953;52.806;18.270;2023-12-22T00:32:37;19.50;;;2.50;;
51927;SDS011;37953;52.806;18.270;2023-12-22T00:35:03;21.73;;;3.58;;
51927;SDS011;37953;52.806;18.270;2023-12-22T00:37:30;19.67;;;3.08;;
51927;SDS011;37953;52.806;18.270;2023-12-22T00:39:56;26.65;;;3.22;;
51927;SDS011;37953;52.806;18.270;2023-12-22T00:42:22;22.10;;;3.47;;
51927;SDS011;37953;52.806;18.270;2023-12-22T00:44:48;18.98;;;2.78;;
51927;SDS011;37953;52.806;18.270;2023-12-22T00:47:14;25.75;;;3.45;;
51927;SDS011;37953;52.806;18.270;2023-12-22T00:49:40;24.55;;;3.00;;
51927;SDS011;37953;52.806;18.270;2023-12-22T00:52:09;19.77;;;2.65;;
51927;SDS011;37953;52.806;18.270;2023-12-22T00:54:35;20.85;;;2.88;;
51927;SDS011;37953;52.806;18.270;2023-12-22T00:57:01;16.38;;;2.70;;
51927;SDS011;37953;52.806;18.270;2023-12-22T00:59:27;27.42;;;3.10;;
51927;SDS011;37953;52.806;18.270;2023-12-22T01:01:53;15.57;;;2.75;;
51927;SDS011;37953;52.806;18.270;2023-12-22T01:04:19;18.83;;;2.95;;
51927;SDS011;37953;52.806;18.270;2023-12-22T01:06:45;20.13;;;2.85;;
51927;SDS011;37953;52.806;18.270;2023-12-22T01:09:11;28.67;;;3.28;;
51927;SDS011;37953;52.806;18.270;2023-12-22T01:11:37;23.30;;;2.80;;
51927;SDS011;37953;52.806;18.270;2023-12-22T01:14:03;12.73;;;2.17;;
51927;SDS011;37953;52.806;18.270;2023-12-22T01:16:29;13.13;;;2.45;;
51927;SDS011;37953;52.806;18.270;2023-12-22T01:18:55;17.85;;;2.78;;
51927;SDS011;37953;52.806;18.270;2023-12-22T01:21:21;25.02;;;3.15;;
51927;SDS011;37953;52.806;18.270;2023-12-22T01:23:47;18.70;;;2.90;;
51927;SDS011;37953;52.806;18.270;2023-12-22T01:26:13;19.83;;;3.28;;
51927;SDS011;37953;52.806;18.270;2023-12-22T01:28:39;17.45;;;2.85;;
51927;SDS011;37953;52.806;18.270;2023-12-22T01:31:05;19.23;;;2.70;;
51927;SDS011;37953;52.806;18.270;2023-12-22T01:33:31;21.90;;;2.88;;
51927;SDS011;37953;52.806;18.270;2023-12-22T01:35:57;24.33;;;3.33;;
51927;SDS011;37953;52.806;18.270;2023-12-22T01:38:23;16.52;;;2.80;;
51927;SDS011;37953;52.806;18.270;2023-12-22T01:40:49;14.98;;;2.60;;
51927;SDS011;37953;52.806;18.270;2023-12-22T01:43:15;17.83;;;2.60;;
51927;SDS011;37953;52.806;18.270;2023-12-22T01:45:47;16.98;;;3.35;;
51927;SDS011;37953;52.806;18.270;2023-12-22T01:48:21;18.70;;;2.95;;
51927;SDS011;37953;52.806;18.270;2023-12-22T01:50:49;16.20;;;2.45;;
51927;SDS011;37953;52.806;18.270;2023-12-22T01:53:22;21.88;;;2.90;;
51927;SDS011;37953;52.806;18.270;2023-12-22T01:55:55;25.23;;;2.95;;
51927;SDS011;37953;52.806;18.270;2023-12-22T01:58:22;15.32;;;2.47;;
51927;SDS011;37953;52.806;18.270;2023-12-22T02:00:49;18.73;;;3.50;;
51927;SDS011;37953;52.806;18.270;2023-12-22T02:03:15;24.50;;;3.08;;
51927;SDS011;37953;52.806;18.270;2023-12-22T02:05:42;26.65;;;2.92;;
51927;SDS011;37953;52.806;18.270;2023-12-22T02:08:15;32.65;;;2.90;;
51927;SDS011;37953;52.806;18.270;2023-12-22T02:10:43;20.35;;;2.83;;
51927;SDS011;37953;52.806;18.270;2023-12-22T02:13:16;25.30;;;3.30;;
51927;SDS011;37953;52.806;18.270;2023-12-22T02:15:42;20.45;;;2.90;;
51927;SDS011;37953;52.806;18.270;2023-12-22T02:18:09;17.33;;;2.75;;
51927;SDS011;37953;52.806;18.270;2023-12-22T02:20:40;16.48;;;2.40;;
51927;SDS011;37953;52.806;18.270;2023-12-22T02:23:07;16.70;;;2.50;;
51927;SDS011;37953;52.806;18.270;2023-12-22T02:25:32;17.10;;;2.88;;
51927;SDS011;37953;52.806;18.270;2023-12-22T02:28:03;19.48;;;2.63;;
51927;SDS011;37953;52.806;18.270;2023-12-22T02:33:09;17.20;;;2.70;;
51927;SDS011;37953;52.806;18.270;2023-12-22T02:35:37;34.13;;;3.10;;
51927;SDS011;37953;52.806;18.270;2023-12-22T02:38:10;15.38;;;2.67;;
51927;SDS011;37953;52.806;18.270;2023-12-22T02:40:43;16.80;;;2.90;;
51927;SDS011;37953;52.806;18.270;2023-12-22T02:43:10;17.38;;;3.08;;
51927;SDS011;37953;52.806;18.270;2023-12-22T02:45:37;29.48;;;3.85;;
51927;SDS011;37953;52.806;18.270;2023-12-22T02:48:04;25.40;;;2.83;;
51927;SDS011;37953;52.806;18.270;2023-12-22T02:50:31;16.83;;;3.08;;
51927;SDS011;37953;52.806;18.270;2023-12-22T02:52:57;20.83;;;2.65;;
51927;SDS011;37953;52.806;18.270;2023-12-22T02:55:23;17.30;;;2.83;;
51927;SDS011;37953;52.806;18.270;2023-12-22T02:57:49;20.55;;;3.22;;
51927;SDS011;37953;52.806;18.270;2023-12-22T03:00:15;14.60;;;2.38;;
51927;SDS011;37953;52.806;18.270;2023-12-22T03:02:41;22.65;;;2.90;;
51927;SDS011;37953;52.806;18.270;2023-12-22T03:05:07;18.63;;;2.90;;
51927;SDS011;37953;52.806;18.270;2023-12-22T03:07:33;22.33;;;3.28;;
51927;SDS011;37953;52.806;18.270;2023-12-22T03:09:59;21.88;;;2.80;;
51927;SDS011;37953;52.806;18.270;2023-12-22T03:12:25;22.00;;;3.22;;
51927;SDS011;37953;52.806;18.270;2023-12-22T03:14:51;18.27;;;2.78;;
51927;SDS011;37953;52.806;18.270;2023-12-22T03:17:17;21.10;;;2.90;;
51927;SDS011;37953;52.806;18.270;2023-12-22T03:19:43;19.30;;;2.78;;
51927;SDS011;37953;52.806;18.270;2023-12-22T03:22:09;17.88;;;2.30;;
51927;SDS011;37953;52.806;18.270;2023-12-22T03:24:35;20.70;;;2.80;;
51927;SDS011;37953;52.806;18.270;2023-12-22T03:27:02;15.63;;;2.42;;
51927;SDS011;37953;52.806;18.270;2023-12-22T03:29:28;23.25;;;2.80;;
51927;SDS011;37953;52.806;18.270;2023-12-22T03:31:54;20.38;;;2.55;;
51927;SDS011;37953;52.806;18.270;2023-12-22T03:34:20;17.40;;;3.20;;
51927;SDS011;37953;52.806;18.270;2023-12-22T03:36:47;20.17;;;2.95;;
51927;SDS011;37953;52.806;18.270;2023-12-22T03:39:16;18.27;;;2.38;;
51927;SDS011;37953;52.806;18.270;2023-12-22T03:41:43;21.80;;;2.60;;
51927;SDS011;37953;52.806;18.270;2023-12-22T03:44:08;12.63;;;2.40;;
51927;SDS011;37953;52.806;18.270;2023-12-22T03:46:35;20.98;;;2.90;;
51927;SDS011;37953;52.806;18.270;2023-12-22T03:49:00;17.95;;;3.00;;
51927;SDS011;37953;52.806;18.270;2023-12-22T03:51:27;19.83;;;2.80;;
51927;SDS011;37953;52.806;18.270;2023-12-22T03:53:52;20.48;;;2.72;;
51927;SDS011;37953;52.806;18.270;2023-12-22T03:56:18;16.38;;;2.42;;
51927;SDS011;37953;52.806;18.270;2023-12-22T03:58:44;28.88;;;3.53;;
51927;SDS011;37953;52.806;18.270;2023-12-22T04:01:13;26.98;;;3.38;;
51927;SDS011;37953;52.806;18.270;2023-12-22T04:03:40;14.93;;;2.65;;
51927;SDS011;37953;52.806;18.270;2023-12-22T04:06:06;21.75;;;3.28;;
51927;SDS011;37953;52.806;18.270;2023-12-22T04:08:32;19.20;;;3.13;;
51927;SDS011;37953;52.806;18.270;2023-12-22T04:11:13;16.73;;;3.00;;
51927;SDS011;37953;52.806;18.270;2023-12-22T04:13:39;21.27;;;2.80;;
51927;SDS011;37953;52.806;18.270;2023-12-22T04:16:05;25.58;;;3.20;;
51927;SDS011;37953;52.806;18.270;2023-12-22T04:18:44;17.95;;;2.78;;
51927;SDS011;37953;52.806;18.270;2023-12-22T04:21:10;22.42;;;3.00;;
51927;SDS011;37953;52.806;18.270;2023-12-22T04:23:36;20.67;;;2.83;;
51927;SDS011;37953;52.806;18.270;2023-12-22T04:26:02;28.63;;;3.08;;
51927;SDS011;37953;52.806;18.270;2023-12-22T04:28:28;25.33;;;3.03;;
51927;SDS011;37953;52.806;18.270;2023-12-22T04:30:54;17.27;;;2.42;;
51927;SDS011;37953;52.806;18.270;2023-12-22T04:33:20;20.00;;;2.75;;
51927;SDS011;37953;52.806;18.270;2023-12-22T04:35:46;15.07;;;2.50;;
51927;SDS011;37953;52.806;18.270;2023-12-22T04:38:12;16.30;;;2.42;;
51927;SDS011;37953;52.806;18.270;2023-12-22T04:40:38;24.13;;;3.08;;
51927;SDS011;37953;52.806;18.270;2023-12-22T04:43:04;29.90;;;4.85;;
51927;SDS011;37953;52.806;18.270;2023-12-22T04:45:29;22.33;;;2.92;;
51927;SDS011;37953;52.806;18.270;2023-12-22T04:47:56;23.30;;;2.65;;
51927;SDS011;37953;52.806;18.270;2023-12-22T04:50:22;28.55;;;2.67;;
51927;SDS011;37953;52.806;18.270;2023-12-22T04:52:48;21.40;;;2.97;;
51927;SDS011;37953;52.806;18.270;2023-12-22T04:55:14;20.90;;;3.22;;
51927;SDS011;37953;52.806;18.270;2023-12-22T04:57:41;17.33;;;2.72;;
51927;SDS011;37953;52.806;18.270;2023-12-22T05:00:07;14.00;;;2.53;;
51927;SDS011;37953;52.806;18.270;2023-12-22T05:02:33;30.85;;;3.55;;
51927;SDS011;37953;52.806;18.270;2023-12-22T05:04:59;33.47;;;4.55;;
51927;SDS011;37953;52.806;18.270;2023-12-22T05:07:27;23.40;;;2.90;;
51927;SDS011;37953;52.806;18.270;2023-12-22T05:10:01;18.80;;;3.25;;
51927;SDS011;37953;52.806;18.270;2023-12-22T05:12:28;21.83;;;3.17;;
51927;SDS011;37953;52.806;18.270;2023-12-22T05:14:54;22.25;;;3.42;;
51927;SDS011;37953;52.806;18.270;2023-12-22T05:17:20;17.73;;;2.65;;
51927;SDS011;37953;52.806;18.270;2023-12-22T05:19:46;18.85;;;2.58;;
51927;SDS011;37953;52.806;18.270;2023-12-22T05:22:25;17.52;;;3.03;;
51927;SDS011;37953;52.806;18.270;2023-12-22T05:24:51;17.35;;;2.42;;
51927;SDS011;37953;52.806;18.270;2023-12-22T05:27:18;16.77;;;2.40;;
51927;SDS011;37953;52.806;18.270;2023-12-22T05:29:44;13.75;;;2.13;;
51927;SDS011;37953;52.806;18.270;2023-12-22T05:32:10;16.85;;;2.53;;
51927;SDS011;37953;52.806;18.270;2023-12-22T05:34:36;24.92;;;2.83;;
51927;SDS011;37953;52.806;18.270;2023-12-22T05:37:02;13.55;;;2.55;;
51927;SDS011;37953;52.806;18.270;2023-12-22T05:39:28;14.52;;;2.45;;
51927;SDS011;37953;52.806;18.270;2023-12-22T05:41:55;15.50;;;2.47;;
51927;SDS011;37953;52.806;18.270;2023-12-22T05:44:21;18.02;;;3.05;;
51927;SDS011;37953;52.806;18.270;2023-12-22T05:46:49;17.98;;;2.83;;
51927;SDS011;37953;52.806;18.270;2023-12-22T05:49:15;16.80;;;2.55;;
51927;SDS011;37953;52.806;18.270;2023-12-22T05:51:42;9.98;;;2.17;;
51927;SDS011;37953;52.806;18.270;2023-12-22T05:54:08;18.33;;;2.70;;
51927;SDS011;37953;52.806;18.270;2023-12-22T05:56:34;17.83;;;2.70;;
51927;SDS011;37953;52.806;18.270;2023-12-22T05:59:00;16.40;;;2.38;;
51927;SDS011;37953;52.806;18.270;2023-12-22T06:01:29;15.63;;;2.72;;
51927;SDS011;37953;52.806;18.270;2023-12-22T06:03:55;27.92;;;2.45;;
51927;SDS011;37953;52.806;18.270;2023-12-22T06:06:22;28.85;;;2.60;;
51927;SDS011;37953;52.806;18.270;2023-12-22T06:08:55;18.02;;;2.70;;
51927;SDS011;37953;52.806;18.270;2023-12-22T06:11:21;16.42;;;3.33;;
51927;SDS011;37953;52.806;18.270;2023-12-22T06:13:47;19.05;;;2.83;;
51927;SDS011;37953;52.806;18.270;2023-12-22T06:16:14;18.98;;;2.58;;
51927;SDS011;37953;52.806;18.270;2023-12-22T06:18:43;36.10;;;4.00;;
51927;SDS011;37953;52.806;18.270;2023-12-22T06:21:09;20.63;;;2.78;;
51927;SDS011;37953;52.806;18.270;2023-12-22T06:23:36;12.52;;;1.70;;
51927;SDS011;37953;52.806;18.270;2023-12-22T06:26:11;12.73;;;2.33;;
51927;SDS011;37953;52.806;18.270;2023-12-22T06:28:37;21.52;;;2.20;;
51927;SDS011;37953;52.806;18.270;2023-12-22T06:31:05;18.80;;;2.42;;
51927;SDS011;37953;52.806;18.270;2023-12-22T06:33:32;18.75;;;2.33;;
51927;SDS011;37953;52.806;18.270;2023-12-22T06:35:58;15.43;;;2.40;;
51927;SDS011;37953;52.806;18.270;2023-12-22T06:38:24;15.50;;;2.17;;
51927;SDS011;37953;52.806;18.270;2023-12-22T06:40:50;11.50;;;1.95;;
51927;SDS011;37953;52.806;18.270;2023-12-22T06:43:16;16.08;;;2.70;;
51927;SDS011;37953;52.806;18.270;2023-12-22T06:45:42;11.07;;;1.85;;
51927;SDS011;37953;52.806;18.270;2023-12-22T06:48:08;15.88;;;2.20;;
51927;SDS011;37953;52.806;18.270;2023-12-22T06:50:40;11.40;;;1.80;;
51927;SDS011;37953;52.806;18.270;2023-12-22T06:53:10;13.07;;;2.35;;
51927;SDS011;37953;52.806;18.270;2023-12-22T06:55:36;10.52;;;2.22;;
51927;SDS011;37953;52.806;18.270;2023-12-22T06:58:02;18.70;;;2.67;;
51927;SDS011;37953;52.806;18.270;2023-12-22T07:00:28;13.95;;;2.15;;
51927;SDS011;37953;52.806;18.270;2023-12-22T07:02:54;10.90;;;2.13;;
51927;SDS011;37953;52.806;18.270;2023-12-22T07:07:49;26.25;;;3.28;;
51927;SDS011;37953;52.806;18.270;2023-12-22T07:10:16;15.85;;;3.03;;
51927;SDS011;37953;52.806;18.270;2023-12-22T07:12:42;24.83;;;3.10;;
51927;SDS011;37953;52.806;18.270;2023-12-22T07:15:08;15.75;;;2.25;;
51927;SDS011;37953;52.806;18.270;2023-12-22T07:17:34;12.80;;;2.47;;
51927;SDS011;37953;52.806;18.270;2023-12-22T07:20:01;22.23;;;2.70;;
51927;SDS011;37953;52.806;18.270;2023-12-22T07:22:28;16.05;;;2.50;;
51927;SDS011;37953;52.806;18.270;2023-12-22T07:24:55;13.88;;;2.70;;
51927;SDS011;37953;52.806;18.270;2023-12-22T07:27:21;19.33;;;2.75;;
51927;SDS011;37953;52.806;18.270;2023-12-22T07:29:47;16.52;;;2.72;;
51927;SDS011;37953;52.806;18.270;2023-12-22T07:32:13;23.40;;;3.17;;
51927;SDS011;37953;52.806;18.270;2023-12-22T07:34:40;22.30;;;2.63;;
51927;SDS011;37953;52.806;18.270;2023-12-22T07:37:06;17.08;;;3.47;;
51927;SDS011;37953;52.806;18.270;2023-12-22T07:39:32;14.43;;;2.58;;
51927;SDS011;37953;52.806;18.270;2023-12-22T07:41:58;13.52;;;2.58;;
51927;SDS011;37953;52.806;18.270;2023-12-22T07:44:24;42.80;;;12.45;;
51927;SDS011;37953;52.806;18.270;2023-12-22T07:46:56;28.40;;;6.80;;
51927;SDS011;37953;52.806;18.270;2023-12-22T07:49:25;22.67;;;3.40;;
51927;SDS011;37953;52.806;18.270;2023-12-22T07:51:52;19.50;;;3.22;;
51927;SDS011;37953;52.806;18.270;2023-12-22T07:54:19;15.18;;;2.67;;
51927;SDS011;37953;52.806;18.270;2023-12-22T07:56:45;22.20;;;4.22;;
51927;SDS011;37953;52.806;18.270;2023-12-22T07:59:11;19.42;;;3.63;;
51927;SDS011;37953;52.806;18.270;2023-12-22T08:01:37;18.85;;;3.15;;
51927;SDS011;37953;52.806;18.270;2023-12-22T08:04:03;32.97;;;8.25;;
51927;SDS011;37953;52.806;18.270;2023-12-22T08:06:30;40.97;;;9.73;;
51927;SDS011;37953;52.806;18.270;2023-12-22T08:08:56;50.90;;;15.57;;
51927;SDS011;37953;52.806;18.270;2023-12-22T08:11:22;30.52;;;8.55;;
51927;SDS011;37953;52.806;18.270;2023-12-22T08:13:50;41.63;;;12.00;;
51927;SDS011;37953;52.806;18.270;2023-12-22T08:16:17;34.70;;;11.00;;
51927;SDS011;37953;52.806;18.270;2023-12-22T08:18:43;33.03;;;10.23;;
51927;SDS011;37953;52.806;18.270;2023-12-22T08:21:09;33.45;;;13.43;;
51927;SDS011;37953;52.806;18.270;2023-12-22T08:23:35;24.23;;;8.52;;
51927;SDS011;37953;52.806;18.270;2023-12-22T08:26:01;28.15;;;10.15;;
51927;SDS011;37953;52.806;18.270;2023-12-22T08:28:27;29.60;;;11.55;;
51927;SDS011;37953;52.806;18.270;2023-12-22T08:30:53;53.17;;;15.77;;
51927;SDS011;37953;52.806;18.270;2023-12-22T08:33:19;56.20;;;16.88;;
51927;SDS011;37953;52.806;18.270;2023-12-22T08:35:45;35.90;;;8.88;;
51927;SDS011;37953;52.806;18.270;2023-12-22T08:38:11;20.10;;;5.80;;
51927;SDS011;37953;52.806;18.270;2023-12-22T08:40:38;17.88;;;4.07;;
51927;SDS011;37953;52.806;18.270;2023-12-22T08:43:05;30.40;;;6.97;;
51927;SDS011;37953;52.806;18.270;2023-12-22T08:45:31;32.53;;;8.02;;
51927;SDS011;37953;52.806;18.270;2023-12-22T08:47:58;70.53;;;18.05;;
51927;SDS011;37953;52.806;18.270;2023-12-22T08:50:30;52.05;;;13.75;;
51927;SDS011;37953;52.806;18.270;2023-12-22T08:52:56;46.60;;;12.27;;
51927;SDS011;37953;52.806;18.270;2023-12-22T08:55:22;26.50;;;5.18;;
51927;SDS011;37953;52.806;18.270;2023-12-22T08:57:48;39.53;;;10.45;;
51927;SDS011;37953;52.806;18.270;2023-12-22T09:00:14;28.23;;;7.93;;
51927;SDS011;37953;52.806;18.270;2023-12-22T09:02:41;14.95;;;5.10;;
51927;SDS011;37953;52.806;18.270;2023-12-22T09:05:06;27.25;;;7.93;;
51927;SDS011;37953;52.806;18.270;2023-12-22T09:07:33;32.50;;;9.38;;
51927;SDS011;37953;52.806;18.270;2023-12-22T09:09:59;20.65;;;5.18;;
51927;SDS011;37953;52.806;18.270;2023-12-22T09:12:25;32.30;;;5.47;;
51927;SDS011;37953;52.806;18.270;2023-12-22T09:14:51;27.63;;;9.02;;
51927;SDS011;37953;52.806;18.270;2023-12-22T09:17:17;18.73;;;4.72;;
51927;SDS011;37953;52.806;18.270;2023-12-22T09:19:43;21.27;;;5.25;;
51927;SDS011;37953;52.806;18.270;2023-12-22T09:22:09;15.60;;;4.25;;
51927;SDS011;37953;52.806;18.270;2023-12-22T09:24:35;23.27;;;5.65;;
51927;SDS011;37953;52.806;18.270;2023-12-22T09:27:02;23.35;;;7.35;;
51927;SDS011;37953;52.806;18.270;2023-12-22T09:29:30;26.52;;;7.15;;
51927;SDS011;37953;52.806;18.270;2023-12-22T09:32:02;16.23;;;3.17;;
51927;SDS011;37953;52.806;18.270;2023-12-22T09:34:28;21.02;;;7.13;;
51927;SDS011;37953;52.806;18.270;2023-12-22T09:36:54;19.60;;;3.85;;
51927;SDS011;37953;52.806;18.270;2023-12-22T09:39:21;23.33;;;5.55;;
51927;SDS011;37953;52.806;18.270;2023-12-22T09:41:48;33.72;;;7.57;;
51927;SDS011;37953;52.806;18.270;2023-12-22T09:44:21;17.75;;;3.72;;
51927;SDS011;37953;52.806;18.270;2023-12-22T09:46:47;20.35;;;4.80;;
51927;SDS011;37953;52.806;18.270;2023-12-22T09:49:16;17.27;;;3.25;;
51927;SDS011;37953;52.806;18.270;2023-12-22T09:51:44;19.83;;;3.50;;
51927;SDS011;37953;52.806;18.270;2023-12-22T09:54:10;12.27;;;2.17;;
51927;SDS011;37953;52.806;18.270;2023-12-22T09:56:43;14.65;;;4.20;;
51927;SDS011;37953;52.806;18.270;2023-12-22T09:59:12;38.55;;;7.75;;
51927;SDS011;37953;52.806;18.270;2023-12-22T10:01:45;29.60;;;6.75;;
51927;SDS011;37953;52.806;18.270;2023-12-22T10:04:12;17.75;;;3.45;;
51927;SDS011;37953;52.806;18.270;2023-12-22T10:06:40;19.02;;;5.20;;
51927;SDS011;37953;52.806;18.270;2023-12-22T10:09:06;20.05;;;4.18;;
51927;SDS011;37953;52.806;18.270;2023-12-22T10:11:35;22.67;;;5.68;;
51927;SDS011;37953;52.806;18.270;2023-12-22T10:14:04;30.05;;;5.05;;
51927;SDS011;37953;52.806;18.270;2023-12-22T10:16:32;23.20;;;5.55;;
51927;SDS011;37953;52.806;18.270;2023-12-22T10:18:58;21.75;;;4.70;;
51927;SDS011;37953;52.806;18.270;2023-12-22T10:21:26;15.73;;;3.00;;
51927;SDS011;37953;52.806;18.270;2023-12-22T10:23:52;16.67;;;3.10;;
51927;SDS011;37953;52.806;18.270;2023-12-22T10:26:18;14.27;;;3.05;;
51927;SDS011;37953;52.806;18.270;2023-12-22T10:28:46;12.50;;;2.80;;
51927;SDS011;37953;52.806;18.270;2023-12-22T10:31:13;17.40;;;4.68;;
51927;SDS011;37953;52.806;18.270;2023-12-22T10:33:39;18.13;;;4.22;;
51927;SDS011;37953;52.806;18.270;2023-12-22T10:36:07;17.70;;;5.20;;
51927;SDS011;37953;52.806;18.270;2023-12-22T10:38:33;22.67;;;4.43;;
51927;SDS011;37953;52.806;18.270;2023-12-22T10:41:03;12.33;;;2.83;;
51927;SDS011;37953;52.806;18.270;2023-12-22T10:43:30;16.55;;;3.22;;
51927;SDS011;37953;52.806;18.270;2023-12-22T10:46:02;14.02;;;3.17;;
51927;SDS011;37953;52.806;18.270;2023-12-22T10:48:36;17.60;;;4.30;;
51927;SDS011;37953;52.806;18.270;2023-12-22T10:51:02;11.88;;;2.67;;
51927;SDS011;37953;52.806;18.270;2023-12-22T10:53:28;19.60;;;4.20;;
51927;SDS011;37953;52.806;18.270;2023-12-22T10:55:54;29.48;;;7.75;;
51927;SDS011;37953;52.806;18.270;2023-12-22T10:58:22;19.00;;;3.80;;
51927;SDS011;37953;52.806;18.270;2023-12-22T11:00:54;18.48;;;3.38;;
51927;SDS011;37953;52.806;18.270;2023-12-22T11:03:21;16.50;;;2.50;;
51927;SDS011;37953;52.806;18.270;2023-12-22T11:05:56;23.15;;;2.80;;
51927;SDS011;37953;52.806;18.270;2023-12-22T11:08:25;13.43;;;3.00;;
51927;SDS011;37953;52.806;18.270;2023-12-22T11:10:58;14.38;;;2.30;;
51927;SDS011;37953;52.806;18.270;2023-12-22T11:13:34;12.27;;;2.65;;
51927;SDS011;37953;52.806;18.270;2023-12-22T11:16:01;18.00;;;4.38;;
51927;SDS011;37953;52.806;18.270;2023-12-22T11:18:27;14.90;;;3.05;;
51927;SDS011;37953;52.806;18.270;2023-12-22T11:20:55;16.13;;;2.30;;
51927;SDS011;37953;52.806;18.270;2023-12-22T11:23:22;14.63;;;4.07;;
51927;SDS011;37953;52.806;18.270;2023-12-22T11:25:50;26.73;;;5.30;;
51927;SDS011;37953;52.806;18.270;2023-12-22T11:28:19;14.65;;;3.60;;
51927;SDS011;37953;52.806;18.270;2023-12-22T11:30:52;17.73;;;2.97;;
51927;SDS011;37953;52.806;18.270;2023-12-22T11:33:20;17.30;;;3.55;;
51927;SDS011;37953;52.806;18.270;2023-12-22T11:35:46;15.57;;;3.97;;
51927;SDS011;37953;52.806;18.270;2023-12-22T11:38:14;20.05;;;4.28;;
51927;SDS011;37953;52.806;18.270;2023-12-22T11:40:41;16.98;;;3.03;;
51927;SDS011;37953;52.806;18.270;2023-12-22T11:43:07;19.63;;;3.03;;
51927;SDS011;37953;52.806;18.270;2023-12-22T11:45:34;11.15;;;2.67;;
51927;SDS011;37953;52.806;18.270;2023-12-22T11:48:08;14.35;;;3.08;;
51927;SDS011;37953;52.806;18.270;2023-12-22T11:50:35;20.90;;;3.22;;
51927;SDS011;37953;52.806;18.270;2023-12-22T11:53:23;16.83;;;2.55;;
51927;SDS011;37953;52.806;18.270;2023-12-22T11:56:05;17.98;;;3.20;;
51927;SDS011;37953;52.806;18.270;2023-12-22T11:58:51;15.80;;;2.78;;
51927;SDS011;37953;52.806;18.270;2023-12-22T12:01:21;13.15;;;2.20;;
51927;SDS011;37953;52.806;18.270;2023-12-22T12:08:54;24.33;;;2.58;;
51927;SDS011;37953;52.806;18.270;2023-12-22T12:12:08;20.53;;;2.93;;
51927;SDS011;37953;52.806;18.270;2023-12-22T12:14:33;13.43;;;2.33;;
51927;SDS011;37953;52.806;18.270;2023-12-22T12:17:07;14.50;;;2.20;;
51927;SDS011;37953;52.806;18.270;2023-12-22T12:19:42;14.18;;;2.85;;
51927;SDS011;37953;52.806;18.270;2023-12-22T12:22:08;19.00;;;3.38;;
51927;SDS011;37953;52.806;18.270;2023-12-22T12:24:37;15.25;;;2.58;;
51927;SDS011;37953;52.806;18.270;2023-12-22T12:27:04;18.05;;;4.28;;
51927;SDS011;37953;52.806;18.270;2023-12-22T12:29:33;17.42;;;3.83;;
51927;SDS011;37953;52.806;18.270;2023-12-22T12:32:03;20.33;;;5.88;;
51927;SDS011;37953;52.806;18.270;2023-12-22T12:34:30;20.38;;;4.22;;
51927;SDS011;37953;52.806;18.270;2023-12-22T12:36:57;29.98;;;6.45;;
51927;SDS011;37953;52.806;18.270;2023-12-22T12:39:27;18.48;;;3.60;;
51927;SDS011;37953;52.806;18.270;2023-12-22T12:41:57;22.25;;;4.13;;
51927;SDS011;37953;52.806;18.270;2023-12-22T12:44:25;12.77;;;2.63;;
51927;SDS011;37953;52.806;18.270;2023-12-22T12:46:52;12.43;;;2.13;;
51927;SDS011;37953;52.806;18.270;2023-12-22T12:49:18;17.02;;;3.67;;
51927;SDS011;37953;52.806;18.270;2023-12-22T12:51:46;16.55;;;2.63;;
51927;SDS011;37953;52.806;18.270;2023-12-22T12:54:13;27.38;;;3.50;;
51927;SDS011;37953;52.806;18.270;2023-12-22T12:56:44;14.25;;;2.40;;
51927;SDS011;37953;52.806;18.270;2023-12-22T12:59:11;18.70;;;2.42;;
51927;SDS011;37953;52.806;18.270;2023-12-22T13:01:44;12.93;;;2.25;;
51927;SDS011;37953;52.806;18.270;2023-12-22T13:04:11;10.38;;;2.33;;
51927;SDS011;37953;52.806;18.270;2023-12-22T13:06:44;10.85;;;2.25;;
51927;SDS011;37953;52.806;18.270;2023-12-22T13:09:14;17.73;;;2.70;;
51927;SDS011;37953;52.806;18.270;2023-12-22T13:11:41;21.40;;;3.80;;
51927;SDS011;37953;52.806;18.270;2023-12-22T13:14:09;28.30;;;3.72;;
51927;SDS011;37953;52.806;18.270;2023-12-22T13:16:36;25.08;;;3.42;;
51927;SDS011;37953;52.806;18.270;2023-12-22T13:19:03;28.83;;;4.03;;
51927;SDS011;37953;52.806;18.270;2023-12-22T13:21:30;16.02;;;2.95;;
51927;SDS011;37953;52.806;18.270;2023-12-22T13:26:41;29.25;;;3.20;;
51927;SDS011;37953;52.806;18.270;2023-12-22T13:29:09;14.55;;;2.60;;
51927;SDS011;37953;52.806;18.270;2023-12-22T13:31:41;14.15;;;2.60;;
51927;SDS011;37953;52.806;18.270;2023-12-22T13:34:13;29.05;;;3.70;;
51927;SDS011;37953;52.806;18.270;2023-12-22T13:36:39;17.40;;;3.17;;
51927;SDS011;37953;52.806;18.270;2023-12-22T13:39:08;25.65;;;3.08;;
51927;SDS011;37953;52.806;18.270;2023-12-22T13:41:35;21.90;;;3.55;;
51927;SDS011;37953;52.806;18.270;2023-12-22T13:46:31;26.27;;;3.58;;
51927;SDS011;37953;52.806;18.270;2023-12-22T13:49:07;25.58;;;3.28;;
51927;SDS011;37953;52.806;18.270;2023-12-22T13:51:44;17.48;;;3.05;;
51927;SDS011;37953;52.806;18.270;2023-12-22T13:54:10;17.05;;;2.97;;
51927;SDS011;37953;52.806;18.270;2023-12-22T13:56:37;16.55;;;2.78;;
51927;SDS011;37953;52.806;18.270;2023-12-22T13:59:06;27.83;;;3.67;;
51927;SDS011;37953;52.806;18.270;2023-12-22T14:01:45;34.10;;;4.70;;
51927;SDS011;37953;52.806;18.270;2023-12-22T14:04:11;21.80;;;3.83;;
51927;SDS011;37953;52.806;18.270;2023-12-22T14:06:37;42.88;;;4.30;;
51927;SDS011;37953;52.806;18.270;2023-12-22T14:09:04;27.33;;;3.83;;
51927;SDS011;37953;52.806;18.270;2023-12-22T14:11:30;26.70;;;4.28;;
51927;SDS011;37953;52.806;18.270;2023-12-22T14:13:56;23.08;;;3.85;;
51927;SDS011;37953;52.806;18.270;2023-12-22T14:16:22;23.15;;;3.15;;
51927;SDS011;37953;52.806;18.270;2023-12-22T14:18:49;28.23;;;4.00;;
51927;SDS011;37953;52.806;18.270;2023-12-22T14:21:15;32.65;;;3.88;;
51927;SDS011;37953;52.806;18.270;2023-12-22T14:23:41;23.75;;;3.72;;
51927;SDS011;37953;52.806;18.270;2023-12-22T14:26:07;22.92;;;3.47;;
51927;SDS011;37953;52.806;18.270;2023-12-22T14:28:34;30.67;;;4.57;;
51927;SDS011;37953;52.806;18.270;2023-12-22T14:31:06;30.80;;;4.32;;
51927;SDS011;37953;52.806;18.270;2023-12-22T14:33:32;30.20;;;4.65;;
51927;SDS011;37953;52.806;18.270;2023-12-22T14:35:58;31.30;;;5.85;;
51927;SDS011;37953;52.806;18.270;2023-12-22T14:38:24;36.92;;;10.07;;